Time;durP1;ratioP1;P1;durP2;ratioP2;P2;SDS_P1;SDS_P2;PMS_P1;PMS_P2;Temp;Humidity;BMP_temperature;BMP_pressure;BME280_temperature;BME280_humidity;BME280_pressure;Samples;Min_cycle;Max_cycle;Signal;HPM_P1;HPM_P2
2021/12/25 00:00:46;;;;;;;4.40;4.00;;;1.50;99.90;;;;;;5053863;28;20194;-48
2021/12/25 00:03:12;;;;;;;5.00;4.10;;;1.50;99.90;;;;;;5063185;28;20197;-51
2021/12/25 00:05:37;;;;;;;4.47;3.70;;;1.50;99.90;;;;;;5060870;28;20178;-56
2021/12/25 00:08:03;;;;;;;5.90;3.57;;;1.50;99.90;;;;;;5052903;28;20182;-51
2021/12/25 00:10:30;;;;;;;5.40;3.50;;;1.50;99.90;;;;;;5054326;28;20636;-51
2021/12/25 00:12:56;;;;;;;4.88;3.45;;;1.40;99.90;;;;;;5051450;28;20599;-53
2021/12/25 00:15:22;;;;;;;5.38;4.05;;;1.40;99.90;;;;;;5064413;28;20233;-48
2021/12/25 00:17:48;;;;;;;5.83;3.93;;;1.40;99.90;;;;;;5070112;28;20253;-51
2021/12/25 00:20:14;;;;;;;5.45;3.97;;;1.40;99.90;;;;;;5076300;28;20178;-53
2021/12/25 00:22:40;;;;;;;5.80;4.20;;;1.50;99.90;;;;;;5082439;28;20185;-49
2021/12/25 00:25:07;;;;;;;6.97;4.37;;;1.60;99.90;;;;;;5083126;28;21046;-49
2021/12/25 00:27:51;;;;;;;5.70;4.40;;;1.50;99.90;;;;;;5081542;28;20192;-50
2021/12/25 00:30:30;;;;;;;4.90;4.20;;;1.50;99.90;;;;;;5071678;28;20173;-51
2021/12/25 00:33:04;;;;;;;5.60;4.18;;;1.40;99.90;;;;;;5081906;28;20869;-52
2021/12/25 00:35:29;;;;;;;5.43;4.22;;;1.50;99.90;;;;;;5073541;28;20940;-47
2021/12/25 00:37:55;;;;;;;6.77;4.87;;;1.40;99.90;;;;;;5079377;28;20303;-54
2021/12/25 00:40:22;;;;;;;7.23;4.63;;;1.50;99.90;;;;;;5078700;28;20235;-55
2021/12/25 00:42:48;;;;;;;7.13;4.20;;;1.50;99.90;;;;;;5082323;28;20181;-49
2021/12/25 00:45:14;;;;;;;6.43;4.80;;;1.50;99.90;;;;;;5072450;28;20193;-50
2021/12/25 00:47:40;;;;;;;4.60;3.70;;;1.50;99.90;;;;;;5080383;28;20197;-56
2021/12/25 00:50:06;;;;;;;5.30;4.20;;;1.40;99.90;;;;;;5077407;28;20189;-53
2021/12/25 00:52:32;;;;;;;4.10;3.70;;;1.40;99.90;;;;;;5082050;28;20440;-53
2021/12/25 00:54:57;;;;;;;4.90;4.00;;;1.40;99.90;;;;;;5070064;28;20205;-54
2021/12/25 00:57:23;;;;;;;4.53;3.93;;;1.40;99.90;;;;;;5084702;28;20209;-54
2021/12/25 00:59:49;;;;;;;4.50;4.00;;;1.40;99.90;;;;;;5078458;28;20177;-52
2021/12/25 01:02:14;;;;;;;6.00;4.73;;;1.40;99.90;;;;;;5076295;28;20273;-51
2021/12/25 01:04:40;;;;;;;6.60;5.00;;;1.40;99.90;;;;;;5088498;28;20236;-56
2021/12/25 01:07:05;;;;;;;6.87;5.37;;;1.40;99.90;;;;;;5076407;28;20205;-51
2021/12/25 01:09:31;;;;;;;6.00;4.97;;;1.40;99.90;;;;;;5072168;28;20945;-48
2021/12/25 01:11:57;;;;;;;6.50;4.97;;;1.40;99.90;;;;;;5079283;28;20738;-59
2021/12/25 01:22:48;;;;;;;6.20;5.40;;;1.40;99.90;;;;;;5048427;28;20259;-47
2021/12/25 01:25:25;;;;;;;5.20;4.47;;;1.40;99.90;;;;;;5048546;28;20204;-50
2021/12/25 01:30:47;;;;;;;6.82;4.78;;;1.50;99.90;;;;;;5056885;28;20228;-49
2021/12/25 01:36:24;;;;;;;5.00;3.78;;;1.50;99.90;;;;;;5061145;28;20212;-49
2021/12/25 01:49:35;;;;;;;4.47;3.50;;;1.40;99.90;;;;;;5052561;28;20236;-50
2021/12/25 01:52:02;;;;;;;3.72;2.75;;;1.40;99.90;;;;;;5061480;28;20246;-53
2021/12/25 01:54:28;;;;;;;4.78;3.20;;;1.30;99.90;;;;;;5051993;28;20296;-48
2021/12/25 01:56:53;;;;;;;3.53;3.07;;;1.40;99.90;;;;;;5063150;28;20281;-49
2021/12/25 01:59:19;;;;;;;3.67;2.87;;;1.40;99.90;;;;;;5060584;28;20687;-48
2021/12/25 02:01:45;;;;;;;3.67;3.07;;;1.40;99.90;;;;;;5049503;28;20191;-51
2021/12/25 02:04:11;;;;;;;3.60;3.20;;;1.40;99.90;;;;;;5042887;28;20190;-50
2021/12/25 02:06:36;;;;;;;3.50;3.10;;;1.30;99.90;;;;;;5060776;28;20261;-51
2021/12/25 02:09:04;;;;;;;4.33;3.47;;;1.30;99.90;;;;;;5061489;28;20287;-52
2021/12/25 02:11:30;;;;;;;4.70;3.67;;;1.30;99.90;;;;;;5054544;28;20178;-51
2021/12/25 02:13:55;;;;;;;3.83;3.20;;;1.30;99.90;;;;;;5060369;28;20193;-50
2021/12/25 02:16:25;;;;;;;5.87;4.27;;;1.20;99.90;;;;;;5051806;28;20232;-49
2021/12/25 02:19:08;;;;;;;3.75;2.95;;;1.20;99.90;;;;;;5074410;28;20236;-52
2021/12/25 02:21:37;;;;;;;4.40;3.55;;;1.10;99.90;;;;;;5070769;28;20193;-51
2021/12/25 02:24:05;;;;;;;3.78;3.03;;;1.00;99.90;;;;;;5069626;28;20204;-54
2021/12/25 02:26:32;;;;;;;4.50;3.00;;;0.90;99.90;;;;;;5075490;28;20572;-55
2021/12/25 02:28:57;;;;;;;3.50;3.05;;;0.80;99.90;;;;;;5070064;28;20181;-50
2021/12/25 02:31:24;;;;;;;3.73;3.00;;;0.80;99.90;;;;;;5066241;28;20196;-49
2021/12/25 02:33:50;;;;;;;2.85;2.40;;;0.70;99.90;;;;;;5076098;28;20201;-53
2021/12/25 02:36:16;;;;;;;3.05;2.42;;;0.60;99.90;;;;;;5074462;28;20282;-49
2021/12/25 02:38:43;;;;;;;3.95;2.53;;;0.50;99.90;;;;;;5066776;28;20947;-50
2021/12/25 02:41:09;;;;;;;2.85;2.38;;;0.40;99.90;;;;;;5072422;28;20932;-53
2021/12/25 02:43:35;;;;;;;2.70;1.87;;;0.50;99.90;;;;;;5076562;28;20185;-51
2021/12/25 02:46:03;;;;;;;2.60;2.25;;;0.50;99.90;;;;;;5078725;28;20184;-50
2021/12/25 02:48:29;;;;;;;2.70;1.73;;;0.40;99.90;;;;;;5072450;28;20178;-53
2021/12/25 02:50:55;;;;;;;2.08;1.70;;;0.30;99.90;;;;;;5074374;28;20536;-51
2021/12/25 02:53:22;;;;;;;2.08;1.67;;;0.20;99.90;;;;;;5076679;28;20218;-49
2021/12/25 02:55:48;;;;;;;2.42;2.00;;;0.00;99.90;;;;;;5075764;28;20282;-53
2021/12/25 02:58:14;;;;;;;1.50;1.30;;;0.00;99.90;;;;;;5074194;28;20209;-51
2021/12/25 03:00:46;;;;;;;2.13;1.60;;;0.00;99.90;;;;;;5075005;28;20786;-51
2021/12/25 03:03:12;;;;;;;3.20;1.80;;;-0.10;99.90;;;;;;5084518;28;20207;-52
2021/12/25 03:05:38;;;;;;;1.57;1.47;;;-0.20;99.90;;;;;;5078550;28;20178;-54
2021/12/25 03:08:09;;;;;;;1.60;1.47;;;-0.20;99.90;;;;;;5080892;28;20260;-51
2021/12/25 03:10:36;;;;;;;2.40;1.52;;;-0.30;99.90;;;;;;5082211;28;20476;-52
2021/12/25 03:15:45;;;;;;;5.32;1.48;;;-0.40;99.90;;;;;;5075226;28;20190;-52
2021/12/25 03:18:16;;;;;;;2.38;1.40;;;-0.40;99.90;;;;;;5062208;28;20308;-50
2021/12/25 03:20:45;;;;;;;3.20;1.55;;;-0.50;99.90;;;;;;5051062;28;20181;-54
2021/12/25 03:23:19;;;;;;;2.50;1.75;;;-0.50;99.90;;;;;;5051907;28;20178;-50
2021/12/25 03:25:46;;;;;;;2.25;1.65;;;-0.50;99.90;;;;;;5032917;28;20554;-52
2021/12/25 03:28:12;;;;;;;1.50;1.38;;;-0.60;99.90;;;;;;5050714;28;20178;-51
2021/12/25 03:30:39;;;;;;;2.25;1.50;;;-0.60;99.90;;;;;;5052056;28;20192;-53
2021/12/25 03:33:06;;;;;;;1.90;1.40;;;-0.60;99.90;;;;;;5051887;28;20273;-50
2021/12/25 03:35:33;;;;;;;3.05;1.95;;;-0.70;99.90;;;;;;5051178;28;20198;-52
2021/12/25 03:37:59;;;;;;;2.65;2.10;;;-0.70;99.90;;;;;;5057622;28;20189;-49
2021/12/25 03:40:24;;;;;;;1.87;1.67;;;-0.70;99.90;;;;;;5051196;28;20178;-50
2021/12/25 03:42:50;;;;;;;3.27;1.90;;;-0.70;99.90;;;;;;5050730;28;20443;-50
2021/12/25 03:45:16;;;;;;;2.60;2.20;;;-0.70;99.90;;;;;;5056439;28;20190;-52
2021/12/25 03:47:42;;;;;;;3.20;2.67;;;-0.60;99.90;;;;;;5051572;28;20243;-57
2021/12/25 03:58:27;;;;;;;4.05;3.00;;;-0.60;99.90;;;;;;5053617;28;20617;-53
2021/12/25 04:00:59;;;;;;;4.78;3.25;;;-0.70;99.90;;;;;;5051182;28;20187;-51
2021/12/25 04:03:39;;;;;;;8.45;3.60;;;-0.70;99.90;;;;;;5032337;28;20213;-51
2021/12/25 04:06:08;;;;;;;4.57;3.55;;;-0.60;99.90;;;;;;5050790;28;20194;-48
2021/12/25 04:08:41;;;;;;;5.68;4.40;;;-0.60;99.90;;;;;;5050555;28;20178;-53
2021/12/25 04:11:13;;;;;;;6.75;3.90;;;-0.70;99.90;;;;;;5050789;28;20202;-50
2021/12/25 04:13:38;;;;;;;6.93;4.05;;;-0.60;99.90;;;;;;5052717;28;20182;-53
2021/12/25 04:16:05;;;;;;;5.50;4.10;;;-0.60;99.90;;;;;;5050077;28;20615;-52
2021/12/25 04:18:30;;;;;;;6.32;4.07;;;-0.60;99.90;;;;;;5073046;28;20467;-50
2021/12/25 04:20:56;;;;;;;6.53;3.93;;;-0.60;99.90;;;;;;5081471;28;20708;-50
2021/12/25 04:23:26;;;;;;;6.33;4.10;;;-0.60;99.90;;;;;;5073629;28;20185;-50
2021/12/25 04:25:54;;;;;;;9.30;4.75;;;-0.70;99.90;;;;;;5075988;28;20532;-54
2021/12/25 04:28:34;;;;;;;6.95;4.60;;;-0.70;99.90;;;;;;5074118;28;20598;-55
2021/12/25 05:06:14;;;;;;;5.95;4.47;;;-0.70;99.90;;;;;;5075773;28;20196;-55
2021/12/25 05:08:40;;;;;;;6.50;4.30;;;-0.60;99.90;;;;;;5073149;28;20185;-50
2021/12/25 05:11:05;;;;;;;5.10;3.90;;;-0.80;99.90;;;;;;5073217;28;20458;-49
2021/12/25 05:13:32;;;;;;;5.03;4.00;;;-0.80;99.90;;;;;;5073855;28;20901;-53
2021/12/25 05:15:58;;;;;;;8.05;4.60;;;-0.70;99.90;;;;;;5072846;28;20197;-49
2021/12/25 05:18:24;;;;;;;4.80;3.87;;;-0.70;99.90;;;;;;5078399;28;20220;-51
2021/12/25 05:20:49;;;;;;;5.77;4.07;;;-0.80;99.90;;;;;;5081029;28;20430;-50
2021/12/25 05:23:15;;;;;;;5.43;4.00;;;-0.90;99.90;;;;;;5076464;28;20176;-50
2021/12/25 05:25:41;;;;;;;5.30;4.37;;;-0.90;99.90;;;;;;5071823;28;20271;-51
2021/12/25 05:28:07;;;;;;;7.60;4.70;;;-0.80;99.90;;;;;;5081158;28;20749;-52
2021/12/25 05:30:32;;;;;;;6.07;4.43;;;-0.80;99.90;;;;;;5078266;28;20186;-52
2021/12/25 05:32:58;;;;;;;5.37;4.40;;;-0.80;99.90;;;;;;5077672;28;20205;-53
2021/12/25 05:35:24;;;;;;;4.50;4.00;;;-0.80;99.90;;;;;;5073047;28;20220;-52
2021/12/25 05:37:56;;;;;;;7.53;4.60;;;-0.80;99.90;;;;;;5072349;28;20192;-51
2021/12/25 05:40:23;;;;;;;6.72;4.22;;;-0.80;99.90;;;;;;5079787;28;20186;-53
2021/12/25 05:42:50;;;;;;;6.53;5.18;;;-0.80;99.90;;;;;;5077198;28;20648;-55
2021/12/25 05:45:16;;;;;;;8.13;4.85;;;-0.80;99.90;;;;;;5081057;28;20186;-52
2021/12/25 05:47:41;;;;;;;5.60;4.10;;;-0.80;99.90;;;;;;5079884;28;20210;-53
2021/12/25 05:50:07;;;;;;;6.70;4.63;;;-0.80;99.90;;;;;;5074236;28;20189;-53
2021/12/25 05:52:33;;;;;;;8.07;4.80;;;-0.80;99.90;;;;;;5079275;28;20185;-52
2021/12/25 05:54:58;;;;;;;5.23;4.73;;;-0.80;99.90;;;;;;5076374;28;20209;-53
2021/12/25 05:57:24;;;;;;;6.37;4.30;;;-0.80;99.90;;;;;;5074862;28;20176;-54
2021/12/25 05:59:49;;;;;;;6.40;4.77;;;-0.70;99.90;;;;;;5070500;28;20192;-52
2021/12/25 06:02:15;;;;;;;8.90;4.40;;;-0.70;99.90;;;;;;5074421;28;20186;-49
2021/12/25 06:04:40;;;;;;;6.87;4.30;;;-0.70;99.90;;;;;;5070008;28;20190;-52
2021/12/25 06:07:06;;;;;;;7.27;4.50;;;-0.70;99.90;;;;;;5074940;28;20552;-54
2021/12/25 06:09:31;;;;;;;8.50;4.73;;;-0.70;99.90;;;;;;5082377;28;20181;-50
2021/12/25 06:11:57;;;;;;;5.47;4.40;;;-0.80;99.90;;;;;;5082999;28;20181;-51
2021/12/25 06:14:22;;;;;;;6.57;5.10;;;-0.80;99.90;;;;;;5068456;28;20201;-52
2021/12/25 06:16:49;;;;;;;8.47;5.33;;;-0.80;99.90;;;;;;5051587;28;20327;-56
2021/12/25 06:19:16;;;;;;;5.38;4.88;;;-0.80;99.90;;;;;;5047016;28;20261;-54
2021/12/25 06:21:42;;;;;;;6.05;4.70;;;-0.80;99.90;;;;;;5054737;28;20634;-49
2021/12/25 06:24:08;;;;;;;5.50;4.50;;;-0.80;99.90;;;;;;5046530;28;20633;-52
2021/12/25 06:26:35;;;;;;;6.03;4.50;;;-0.80;99.90;;;;;;5047871;28;20197;-54
2021/12/25 06:29:01;;;;;;;6.25;4.32;;;-0.90;99.90;;;;;;5047660;28;20204;-52
2021/12/25 06:31:26;;;;;;;6.13;4.97;;;-0.90;99.90;;;;;;5048804;28;20203;-50
2021/12/25 06:33:52;;;;;;;6.03;4.80;;;-0.90;99.90;;;;;;5047936;28;20182;-50
2021/12/25 06:36:18;;;;;;;7.60;5.00;;;-0.80;99.90;;;;;;5048664;28;20237;-54
2021/12/25 06:38:44;;;;;;;5.63;4.50;;;-0.90;99.90;;;;;;5047500;28;20636;-53
2021/12/25 06:41:10;;;;;;;7.78;5.15;;;-0.90;99.90;;;;;;5047330;28;20182;-53
2021/12/25 06:43:36;;;;;;;10.30;6.05;;;-0.80;99.90;;;;;;5051122;28;20271;-53
2021/12/25 06:46:02;;;;;;;6.60;4.80;;;-0.80;99.90;;;;;;5051297;28;20206;-54
2021/12/25 06:48:28;;;;;;;7.50;4.60;;;-0.90;99.90;;;;;;5047976;28;20264;-50
2021/12/25 06:50:54;;;;;;;8.10;5.40;;;-0.90;99.90;;;;;;5050581;28;20323;-51
2021/12/25 06:53:19;;;;;;;6.77;4.93;;;-0.90;99.90;;;;;;5047148;28;20261;-53
2021/12/25 06:55:45;;;;;;;6.33;4.93;;;-0.90;99.90;;;;;;5047225;28;20205;-50
2021/12/25 06:58:11;;;;;;;7.13;5.10;;;-0.90;99.90;;;;;;5048805;28;20186;-49
2021/12/25 07:00:36;;;;;;;8.30;5.40;;;-0.90;99.90;;;;;;5047258;28;20439;-50
2021/12/25 07:03:02;;;;;;;7.73;5.37;;;-0.90;99.90;;;;;;5047684;28;20184;-55
2021/12/25 07:05:28;;;;;;;7.23;5.80;;;-0.90;99.90;;;;;;5044858;28;20175;-48
2021/12/25 07:07:53;;;;;;;6.60;4.23;;;-0.90;99.90;;;;;;5048632;28;20428;-49
2021/12/25 07:10:20;;;;;;;5.47;4.30;;;-0.90;99.90;;;;;;5047386;28;20253;-50
2021/12/25 07:12:48;;;;;;;5.53;4.50;;;-0.90;99.90;;;;;;5050114;28;20722;-54
2021/12/25 07:15:14;;;;;;;5.70;4.90;;;-1.00;99.90;;;;;;5047329;28;20220;-49
2021/12/25 07:17:40;;;;;;;6.68;4.00;;;-1.00;99.90;;;;;;5048093;28;20327;-53
2021/12/25 07:20:06;;;;;;;3.70;3.20;;;-1.00;99.90;;;;;;5052311;28;20215;-49
2021/12/25 07:22:32;;;;;;;4.60;4.20;;;-1.00;99.90;;;;;;5058126;28;20239;-52
2021/12/25 07:24:59;;;;;;;4.07;3.40;;;-1.10;99.90;;;;;;5056017;28;20461;-47
2021/12/25 07:27:24;;;;;;;4.00;3.27;;;-1.10;99.90;;;;;;5055970;28;20193;-54
2021/12/25 07:29:50;;;;;;;3.97;2.77;;;-1.20;99.90;;;;;;5054837;28;20506;-50
2021/12/25 07:32:16;;;;;;;6.33;3.17;;;-1.20;99.90;;;;;;5058777;28;20198;-48
2021/12/25 07:34:45;;;;;;;3.53;2.90;;;-1.20;99.90;;;;;;5049224;28;20289;-53
2021/12/25 07:37:12;;;;;;;3.95;3.08;;;-1.20;99.90;;;;;;5052909;28;20432;-52
2021/12/25 07:39:38;;;;;;;4.47;2.83;;;-1.20;99.90;;;;;;5050488;28;20264;-52
2021/12/25 07:42:03;;;;;;;3.50;3.03;;;-1.20;99.90;;;;;;5055937;28;20720;-47
2021/12/25 07:44:29;;;;;;;3.17;2.60;;;-1.20;99.90;;;;;;5051371;28;20624;-49
2021/12/25 07:46:55;;;;;;;2.60;2.40;;;-1.20;99.90;;;;;;5055541;28;20182;-53
2021/12/25 07:49:21;;;;;;;7.43;4.00;;;-1.30;99.90;;;;;;5050355;28;20197;-55
2021/12/25 07:51:48;;;;;;;3.88;2.80;;;-1.30;99.90;;;;;;5050705;28;20444;-58
2021/12/25 07:54:13;;;;;;;5.90;4.28;;;-1.30;99.90;;;;;;5047930;28;20201;-56
2021/12/25 07:56:39;;;;;;;3.90;3.20;;;-1.30;99.90;;;;;;5051426;28;20194;-56
2021/12/25 07:59:06;;;;;;;6.20;5.40;;;-1.30;99.90;;;;;;5053576;28;20186;-53
2021/12/25 08:01:34;;;;;;;2.45;2.25;;;-1.30;99.90;;;;;;5047887;28;20990;-58
2021/12/25 08:04:01;;;;;;;3.25;2.65;;;-1.30;99.90;;;;;;5050249;28;20213;-59
2021/12/25 08:06:26;;;;;;;3.00;2.60;;;-1.30;99.90;;;;;;5049340;28;20209;-55
2021/12/25 08:08:55;;;;;;;3.70;2.33;;;-1.30;99.90;;;;;;5052897;28;21024;-57
2021/12/25 08:11:21;;;;;;;4.82;3.88;;;-1.20;99.90;;;;;;5053506;28;20177;-58
2021/12/25 08:13:47;;;;;;;2.23;2.03;;;-1.30;99.90;;;;;;5064292;28;20246;-52
2021/12/25 08:16:12;;;;;;;2.70;2.30;;;-1.20;99.90;;;;;;5052924;28;20469;-56
2021/12/25 08:18:38;;;;;;;2.30;2.10;;;-1.20;99.90;;;;;;5062374;28;20233;-56
2021/12/25 08:21:04;;;;;;;2.87;2.57;;;-1.20;99.90;;;;;;5069953;28;20670;-58
2021/12/25 08:23:32;;;;;;;3.95;2.70;;;-1.10;99.90;;;;;;5070522;28;20185;-52
2021/12/25 08:25:58;;;;;;;3.72;2.45;;;-1.10;99.90;;;;;;5068346;28;20178;-57
2021/12/25 08:28:24;;;;;;;2.90;2.63;;;-1.10;99.90;;;;;;5071226;28;20215;-59
2021/12/25 08:30:49;;;;;;;4.80;2.90;;;-1.10;99.90;;;;;;5068901;28;20186;-58
2021/12/25 08:33:15;;;;;;;3.40;2.50;;;-1.10;99.90;;;;;;5070150;28;20194;-56
2021/12/25 08:35:40;;;;;;;3.70;2.73;;;-1.10;99.90;;;;;;5062493;28;20275;-54
2021/12/25 08:38:06;;;;;;;2.70;2.10;;;-1.00;99.90;;;;;;5060297;28;20200;-58
2021/12/25 08:40:32;;;;;;;3.50;2.20;;;-1.00;99.90;;;;;;5061158;28;20615;-56
2021/12/25 08:43:01;;;;;;;5.13;2.93;;;-1.00;99.90;;;;;;5060128;28;20181;-54
2021/12/25 08:45:46;;;;;;;3.75;3.30;;;-0.90;99.90;;;;;;5058004;28;20268;-55
2021/12/25 08:48:17;;;;;;;2.85;2.65;;;-0.90;99.90;;;;;;5059197;28;20188;-54
2021/12/25 08:50:50;;;;;;;3.95;2.45;;;-0.80;99.90;;;;;;5057253;28;20635;-58
2021/12/25 08:53:17;;;;;;;4.93;3.35;;;-0.90;99.90;;;;;;5058504;28;20269;-57
2021/12/25 08:55:43;;;;;;;4.97;3.55;;;-0.90;99.90;;;;;;5048584;28;20232;-56
2021/12/25 08:58:09;;;;;;;4.20;3.15;;;-0.90;99.90;;;;;;5048036;28;20222;-57
2021/12/25 09:00:35;;;;;;;3.70;3.23;;;-0.80;99.90;;;;;;5044228;28;20186;-59
2021/12/25 09:03:01;;;;;;;5.82;4.70;;;-0.80;99.90;;;;;;5056791;28;20238;-54
2021/12/25 09:05:26;;;;;;;19.00;12.07;;;-0.60;99.90;;;;;;5058976;28;20177;-56
2021/12/25 09:07:52;;;;;;;10.20;6.60;;;-0.60;99.90;;;;;;5061625;28;20197;-57
2021/12/25 09:10:18;;;;;;;3.77;3.10;;;-0.60;99.90;;;;;;5043628;28;20599;-57
2021/12/25 09:12:45;;;;;;;5.75;2.97;;;-0.40;99.90;;;;;;5059587;28;20192;-58
2021/12/25 09:15:11;;;;;;;6.45;4.50;;;-0.40;99.90;;;;;;5061038;28;20209;-52
2021/12/25 09:17:37;;;;;;;5.43;3.30;;;-0.40;99.90;;;;;;5060035;28;20225;-59
2021/12/25 09:20:05;;;;;;;3.53;2.90;;;-0.30;99.90;;;;;;5043277;28;20182;-56
2021/12/25 09:22:32;;;;;;;5.30;2.72;;;-0.20;99.90;;;;;;5055048;28;20756;-56
2021/12/25 09:24:57;;;;;;;3.35;3.05;;;-0.20;99.90;;;;;;5049539;28;20516;-57
2021/12/25 09:27:23;;;;;;;6.73;2.83;;;0.00;99.90;;;;;;5049775;28;20193;-53
2021/12/25 09:29:48;;;;;;;3.10;2.40;;;0.10;99.90;;;;;;5050544;28;20226;-56
2021/12/25 09:32:14;;;;;;;5.03;3.80;;;0.30;99.90;;;;;;5055291;28;20273;-53
2021/12/25 09:34:40;;;;;;;9.70;6.97;;;0.60;99.90;;;;;;5047546;28;20213;-56
2021/12/25 09:37:06;;;;;;;6.90;4.50;;;0.80;99.90;;;;;;5037567;28;20689;-57
2021/12/25 09:39:33;;;;;;;3.97;3.35;;;0.80;99.90;;;;;;5036780;28;20478;-51
2021/12/25 09:41:59;;;;;;;3.92;3.08;;;0.70;99.90;;;;;;5033089;28;20213;-57
2021/12/25 09:44:24;;;;;;;4.40;3.40;;;0.50;99.90;;;;;;5037066;28;20218;-59
2021/12/25 09:46:50;;;;;;;2.80;2.60;;;0.50;99.90;;;;;;5033410;28;20455;-58
2021/12/25 09:49:16;;;;;;;3.80;3.30;;;0.50;99.90;;;;;;5040196;28;20213;-59
2021/12/25 09:51:42;;;;;;;3.83;3.10;;;0.40;99.90;;;;;;5039386;28;20496;-55
2021/12/25 09:54:11;;;;;;;5.10;4.00;;;0.40;99.90;;;;;;5047135;28;20827;-57
2021/12/25 09:56:39;;;;;;;4.05;3.60;;;0.40;99.90;;;;;;5050917;28;20185;-55
2021/12/25 09:59:06;;;;;;;5.57;4.50;;;0.50;99.90;;;;;;5055496;28;20627;-57
2021/12/25 10:01:43;;;;;;;3.58;2.92;;;0.50;99.90;;;;;;5043973;28;20178;-55
2021/12/25 10:04:12;;;;;;;1.95;1.75;;;0.60;99.90;;;;;;5054793;28;20193;-54
2021/12/25 10:06:42;;;;;;;4.40;3.88;;;0.50;99.90;;;;;;5063923;28;20264;-55
2021/12/25 10:09:25;;;;;;;2.88;2.55;;;0.50;99.90;;;;;;5059669;28;20272;-53
2021/12/25 10:12:17;;;;;;;7.13;5.88;;;0.60;99.90;;;;;;5056037;28;20589;-57
2021/12/25 10:14:52;;;;;;;3.58;2.92;;;0.40;99.90;;;;;;5055667;28;20221;-58
2021/12/25 10:17:24;;;;;;;5.22;3.75;;;0.20;99.90;;;;;;5053989;28;20233;-57
2021/12/25 10:20:00;;;;;;;3.53;2.80;;;0.20;99.90;;;;;;5058730;28;20519;-57
2021/12/25 10:22:27;;;;;;;3.72;2.45;;;0.10;99.90;;;;;;5061577;28;20251;-58
2021/12/25 10:25:15;;;;;;;3.60;2.85;;;0.20;99.90;;;;;;5057852;28;20200;-57
2021/12/25 10:27:57;;;;;;;2.55;2.35;;;0.20;99.90;;;;;;5040526;28;20193;-52
2021/12/25 10:30:24;;;;;;;3.33;3.03;;;0.20;99.90;;;;;;5039711;28;20311;-59
2021/12/25 10:32:50;;;;;;;3.35;2.50;;;0.20;99.90;;;;;;5039565;28;20738;-57
2021/12/25 10:35:25;;;;;;;7.55;2.90;;;0.20;99.90;;;;;;5038983;28;20237;-55
2021/12/25 10:37:52;;;;;;;3.95;3.58;;;0.20;99.90;;;;;;5020958;28;20213;-52
2021/12/25 10:40:26;;;;;;;4.68;3.28;;;0.20;99.90;;;;;;5039909;28;20182;-58
2021/12/25 10:42:58;;;;;;;4.82;3.22;;;0.40;99.90;;;;;;5038421;28;20181;-54
2021/12/25 10:45:26;;;;;;;3.00;2.28;;;0.30;99.90;;;;;;5038609;28;20197;-59
2021/12/25 10:48:07;;;;;;;2.75;2.50;;;0.30;99.90;;;;;;5039624;28;20328;-56
2021/12/25 10:50:43;;;;;;;3.80;2.53;;;0.40;99.90;;;;;;5039512;28;20204;-57
2021/12/25 10:53:37;;;;;;;6.03;3.78;;;0.50;99.90;;;;;;5037875;28;20184;-56
2021/12/25 10:56:14;;;;;;;4.72;4.10;;;0.50;99.90;;;;;;5033639;28;20222;-58
2021/12/25 10:58:42;;;;;;;7.45;4.18;;;0.50;99.90;;;;;;5039229;28;20239;-57
2021/12/25 11:01:10;;;;;;;9.52;7.65;;;0.60;99.90;;;;;;5038186;28;21189;-57
2021/12/25 11:03:38;;;;;;;10.23;9.10;;;0.50;99.90;;;;;;5019703;28;20190;-58
2021/12/25 11:06:17;;;;;;;5.38;4.88;;;0.60;99.90;;;;;;5038969;28;20952;-57
2021/12/25 11:08:44;;;;;;;4.10;3.70;;;0.60;99.90;;;;;;5036891;28;20222;-59
2021/12/25 11:11:12;;;;;;;4.25;3.85;;;0.60;99.90;;;;;;5036297;28;20190;-56
2021/12/25 11:13:53;;;;;;;3.95;3.65;;;0.70;99.90;;;;;;5034452;28;20728;-56
2021/12/25 11:16:27;;;;;;;4.40;3.42;;;0.70;99.90;;;;;;5058879;28;20206;-55
2021/12/25 11:19:17;;;;;;;6.72;4.60;;;0.60;99.90;;;;;;5054226;28;21086;-58
2021/12/25 11:21:51;;;;;;;6.50;5.90;;;0.60;99.90;;;;;;5048978;28;20261;-57
2021/12/25 11:24:25;;;;;;;7.93;5.30;;;0.70;99.90;;;;;;5061466;28;20182;-54
2021/12/25 11:26:55;;;;;;;4.60;4.20;;;0.70;99.90;;;;;;5067707;28;20174;-55
2021/12/25 11:29:25;;;;;;;4.20;3.70;;;0.70;99.90;;;;;;5051267;28;20199;-57
2021/12/25 11:31:52;;;;;;;5.75;5.10;;;0.70;99.90;;;;;;5051361;28;20189;-55
2021/12/25 11:34:19;;;;;;;5.95;5.13;;;0.60;99.90;;;;;;5055785;28;20173;-56
2021/12/25 11:36:48;;;;;;;6.22;4.15;;;0.60;99.90;;;;;;5055347;28;20640;-58
2021/12/25 11:39:16;;;;;;;7.13;4.78;;;0.60;99.90;;;;;;5039027;28;20181;-57
2021/12/25 11:41:43;;;;;;;5.38;4.88;;;0.60;99.90;;;;;;5053899;28;20185;-57
2021/12/25 11:44:34;;;;;;;5.63;5.13;;;0.50;99.90;;;;;;5054173;28;20227;-54
2021/12/25 11:47:01;;;;;;;5.60;4.10;;;0.50;99.90;;;;;;5047524;28;20185;-55
2021/12/25 11:49:27;;;;;;;4.55;4.15;;;0.40;99.90;;;;;;5045779;28;20240;-57
2021/12/25 11:51:52;;;;;;;7.07;6.10;;;0.40;99.90;;;;;;5047741;28;20595;-56
2021/12/25 11:54:39;;;;;;;4.90;4.40;;;0.50;99.90;;;;;;5063096;28;20193;-55
2021/12/25 11:57:35;;;;;;;5.28;4.20;;;0.30;99.90;;;;;;5061526;28;20243;-56
2021/12/25 11:59:53;;;;;;;5.47;4.90;;;0.40;99.90;;;;;;5056710;28;21019;-53
2021/12/25 12:02:38;;;;;;;6.70;4.50;;;0.30;99.90;;;;;;5057988;28;20191;-54
2021/12/25 12:05:27;;;;;;;5.45;4.05;;;0.10;99.90;;;;;;5058551;28;20263;-54
2021/12/25 12:08:02;;;;;;;4.47;4.07;;;0.10;99.90;;;;;;5053713;28;20178;-59
2021/12/25 12:10:46;;;;;;;4.75;3.90;;;0.00;99.90;;;;;;5060776;28;20182;-57
2021/12/25 12:13:16;;;;;;;4.50;4.00;;;-0.10;99.90;;;;;;5059373;28;20189;-58
2021/12/25 12:15:48;;;;;;;4.80;4.30;;;-0.10;99.90;;;;;;5061278;28;20641;-54
2021/12/25 12:18:26;;;;;;;4.72;3.70;;;0.00;99.90;;;;;;5064157;28;20226;-56
2021/12/25 12:20:57;;;;;;;4.03;3.60;;;0.00;99.90;;;;;;5049963;28;20256;-56
2021/12/25 12:26:12;;;;;;;5.15;3.70;;;0.00;99.90;;;;;;5050451;28;20953;-52
2021/12/25 12:28:52;;;;;;;5.40;4.63;;;0.10;99.90;;;;;;5050642;28;20287;-53
2021/12/25 12:31:39;;;;;;;3.40;3.10;;;0.00;99.90;;;;;;5043277;28;20547;-54
2021/12/25 12:34:40;;;;;;;4.65;4.15;;;0.00;99.90;;;;;;5041549;28;20636;-51
2021/12/25 12:37:15;;;;;;;4.43;3.42;;;0.00;99.90;;;;;;5033487;28;20290;-52
2021/12/25 12:39:54;;;;;;;4.78;3.70;;;-0.10;99.90;;;;;;5044729;28;20562;-52
2021/12/25 12:42:20;;;;;;;3.95;3.53;;;0.00;99.90;;;;;;5048857;28;20719;-55
2021/12/25 12:44:49;;;;;;;5.45;4.43;;;0.10;99.90;;;;;;5042667;28;20187;-55
2021/12/25 12:47:19;;;;;;;5.65;4.72;;;0.00;99.90;;;;;;5044060;28;20185;-56
2021/12/25 12:49:45;;;;;;;10.43;9.13;;;0.10;99.90;;;;;;5040397;28;20260;-49
2021/12/25 12:52:18;;;;;;;5.93;5.10;;;0.10;99.90;;;;;;5039773;28;20319;-50
2021/12/25 12:55:10;;;;;;;4.68;3.95;;;0.00;99.90;;;;;;5047344;28;20651;-48
2021/12/25 12:57:42;;;;;;;4.80;3.83;;;-0.10;99.90;;;;;;5043915;28;20479;-48
2021/12/25 13:00:17;;;;;;;5.60;4.40;;;0.00;99.90;;;;;;5043891;28;20189;-55
2021/12/25 13:02:46;;;;;;;7.20;4.20;;;0.10;99.90;;;;;;5041857;28;20185;-54
2021/12/25 13:05:13;;;;;;;9.10;4.50;;;0.10;99.90;;;;;;5048144;28;20240;-55
2021/12/25 13:07:42;;;;;;;5.28;4.38;;;-0.10;99.90;;;;;;5052969;28;20204;-51
2021/12/25 13:10:39;;;;;;;7.75;5.63;;;0.00;99.90;;;;;;5050297;28;20269;-48
2021/12/25 13:13:15;;;;;;;5.00;4.20;;;0.00;99.90;;;;;;5040469;28;20269;-52
2021/12/25 13:15:43;;;;;;;5.00;4.55;;;0.00;99.90;;;;;;5048928;28;20208;-54
2021/12/25 13:18:10;;;;;;;4.80;4.15;;;-0.10;99.90;;;;;;5051152;28;20246;-51
2021/12/25 13:20:50;;;;;;;5.82;4.25;;;-0.20;99.90;;;;;;5051257;28;20231;-49
2021/12/25 13:23:18;;;;;;;6.25;4.30;;;-0.30;99.90;;;;;;5042268;28;20177;-51
2021/12/25 13:26:05;;;;;;;7.60;4.57;;;-0.40;99.90;;;;;;5041089;28;20648;-53
2021/12/25 13:28:34;;;;;;;4.78;4.28;;;-0.50;99.90;;;;;;5040167;28;20499;-51
2021/12/25 13:31:04;;;;;;;6.00;4.55;;;-0.50;99.90;;;;;;5042641;28;20182;-54
2021/12/25 13:33:41;;;;;;;6.72;4.40;;;-0.60;99.90;;;;;;5050990;28;20688;-55
2021/12/25 13:36:10;;;;;;;6.80;5.80;;;-0.70;99.90;;;;;;5042659;28;20564;-50
2021/12/25 13:38:47;;;;;;;8.15;7.25;;;-0.70;99.90;;;;;;5054193;28;20249;-52
2021/12/25 13:41:15;;;;;;;6.57;5.32;;;-0.80;99.90;;;;;;5045863;28;20182;-50
2021/12/25 13:43:41;;;;;;;6.78;5.55;;;-0.80;99.90;;;;;;5052123;28;20546;-51
2021/12/25 13:46:07;;;;;;;5.87;5.13;;;-0.80;99.90;;;;;;5051984;28;20180;-53
2021/12/25 13:48:39;;;;;;;5.40;4.90;;;-0.90;99.90;;;;;;5061903;28;20470;-53
2021/12/25 13:51:06;;;;;;;10.95;9.63;;;-0.90;99.90;;;;;;5051038;28;20277;-56
2021/12/25 13:53:32;;;;;;;9.85;8.35;;;-0.90;99.90;;;;;;5056332;28;20193;-55
2021/12/25 13:56:07;;;;;;;4.97;4.30;;;-1.10;99.90;;;;;;5048856;28;20198;-53
2021/12/25 13:58:33;;;;;;;4.22;3.83;;;-1.20;99.90;;;;;;5049298;28;20188;-56
2021/12/25 14:00:59;;;;;;;4.77;3.90;;;-1.20;99.90;;;;;;5055252;28;20174;-59
2021/12/25 14:03:28;;;;;;;7.13;6.40;;;-1.30;99.90;;;;;;5047128;28;20190;-55
2021/12/25 14:05:54;;;;;;;4.70;4.30;;;-1.50;99.90;;;;;;5047526;28;20186;-58
2021/12/25 14:08:23;;;;;;;6.55;4.75;;;-1.50;99.90;;;;;;5040317;28;20209;-57
2021/12/25 14:10:50;;;;;;;4.97;4.47;;;-1.60;99.90;;;;;;5037982;28;20300;-59
2021/12/25 14:13:21;;;;;;;4.82;4.32;;;-1.60;99.90;;;;;;5037898;28;20193;-57